createdAt,value
2023-03-13T00:02:05.630Z,100272.00
2023-03-13T00:05:10.230Z,100262.16
2023-03-13T00:08:15.528Z,100252.81
2023-03-13T00:11:19.145Z,100244.31
2023-03-13T00:14:22.771Z,100242.22
2023-03-13T00:17:26.402Z,100236.31
2023-03-13T00:20:30.899Z,100233.59
2023-03-13T00:23:38.640Z,100225.16
2023-03-13T00:26:42.350Z,100224.81
2023-03-13T00:29:45.954Z,100221.25
2023-03-13T00:32:49.709Z,100211.84
2023-03-13T00:35:53.375Z,100210.19
2023-03-13T00:39:00.444Z,100209.53
2023-03-13T00:42:04.851Z,100194.81
2023-03-13T00:45:09.658Z,100194.84
2023-03-13T00:48:13.555Z,100189.09
2023-03-13T00:51:19.657Z,100188.94
2023-03-13T00:54:24.814Z,100179.59
2023-03-13T00:57:28.605Z,100176.25
2023-03-13T01:00:32.278Z,100163.00
2023-03-13T01:03:36.851Z,100151.19
2023-03-13T01:06:43.427Z,100157.75
2023-03-13T01:09:48.513Z,100146.06
2023-03-13T01:12:52.197Z,100138.22
2023-03-13T01:15:56.028Z,100133.69
2023-03-13T01:19:03.328Z,100130.16
2023-03-13T01:22:11.213Z,100119.00
2023-03-13T01:25:17.827Z,100110.44
2023-03-13T01:28:21.439Z,100100.09
2023-03-13T01:31:28.222Z,100096.03
2023-03-13T01:34:31.959Z,100096.25
2023-03-13T01:37:35.640Z,100083.81
2023-03-13T01:40:47.106Z,100081.38
2023-03-13T01:43:50.863Z,100058.00
2023-03-13T01:46:54.677Z,100060.16
2023-03-13T01:49:58.329Z,100054.16
2023-03-13T01:53:02.097Z,100043.84
2023-03-13T01:56:13.436Z,100034.91
2023-03-13T01:59:22.383Z,100022.94
2023-03-13T02:02:26.900Z,100011.63
2023-03-13T02:05:32.692Z,100010.84
2023-03-13T02:08:42.071Z,99997.78
2023-03-13T02:11:53.631Z,99985.31
2023-03-13T02:14:59.677Z,99979.13
2023-03-13T02:18:03.272Z,99973.25
2023-03-13T02:21:22.340Z,99965.28
2023-03-13T02:24:36.938Z,99958.38
2023-03-13T02:27:44.430Z,99949.41
2023-03-13T02:30:52.420Z,99943.31
2023-03-13T02:33:59.130Z,99936.50
2023-03-13T02:37:06.257Z,99920.63
2023-03-13T02:40:14.687Z,99909.44
2023-03-13T02:43:28.940Z,99904.28
2023-03-13T02:46:33.177Z,99894.66
2023-03-13T02:49:37.757Z,99892.34
2023-03-13T02:52:46.542Z,99879.25
2023-03-13T02:55:50.508Z,99876.88
2023-03-13T02:58:55.480Z,99866.13
2023-03-13T03:01:59.382Z,99859.81
2023-03-13T03:05:03.004Z,99854.03
2023-03-13T03:08:06.756Z,99848.72
2023-03-13T03:11:10.894Z,99853.22
2023-03-13T03:14:16.650Z,99838.16
2023-03-13T03:17:20.451Z,99834.50
2023-03-13T03:20:24.017Z,99822.59
2023-03-13T03:23:27.642Z,99814.78
2023-03-13T03:26:31.812Z,99812.38
2023-03-13T03:29:36.785Z,99808.06
2023-03-13T03:32:40.398Z,99801.69
2023-03-13T03:35:44.054Z,99793.34
2023-03-13T03:38:48.122Z,99784.09
2023-03-13T03:41:51.849Z,99779.41
2023-03-13T03:44:56.871Z,99769.41
2023-03-13T03:48:00.694Z,99757.28
2023-03-13T03:51:04.962Z,99748.28
2023-03-13T03:54:08.600Z,99742.47
2023-03-13T03:57:12.342Z,99730.09
2023-03-13T04:00:19.660Z,99711.06
2023-03-13T04:03:23.610Z,99702.78
2023-03-13T04:06:27.324Z,99706.94
2023-03-13T04:09:32.181Z,99700.97
2023-03-13T04:12:36.172Z,99690.78
2023-03-13T04:15:42.346Z,99685.78
2023-03-13T04:18:45.979Z,99678.75
2023-03-13T04:21:49.593Z,99669.69
2023-03-13T04:24:53.357Z,99648.56
2023-03-13T04:27:57.021Z,99644.16
2023-03-13T04:31:02.083Z,99642.59
2023-03-13T04:34:05.715Z,99636.09
2023-03-13T04:37:09.340Z,99614.69
2023-03-13T04:40:14.579Z,99603.59
2023-03-13T04:43:18.159Z,99599.81
2023-03-13T04:46:23.187Z,99596.00
2023-03-13T04:49:27.032Z,99580.28
2023-03-13T04:52:30.732Z,99575.91
2023-03-13T04:55:34.265Z,99584.41
2023-03-13T04:58:37.947Z,99577.63
2023-03-13T05:01:44.353Z,99565.19
2023-03-13T05:04:48.082Z,99567.22
2023-03-13T05:07:51.713Z,99557.81
2023-03-13T05:10:55.348Z,99553.38
2023-03-13T05:13:58.983Z,99556.66
2023-03-13T05:17:03.987Z,99548.22
2023-03-13T05:20:11.303Z,99547.69
2023-03-13T05:23:15.205Z,99536.91
2023-03-13T05:26:19.073Z,99529.44
2023-03-13T05:29:22.947Z,99525.16
2023-03-13T05:32:28.162Z,99510.81
2023-03-13T05:35:31.848Z,99514.25
2023-03-13T05:38:35.644Z,99503.59
2023-03-13T05:41:39.388Z,99490.09
2023-03-13T05:44:43.047Z,99497.09
2023-03-13T05:47:48.070Z,99489.78
2023-03-13T05:50:51.734Z,99486.97
2023-03-13T05:53:55.388Z,99477.81
2023-03-13T05:56:59.066Z,99483.78
2023-03-13T06:00:02.913Z,99469.53
2023-03-13T06:03:07.948Z,99463.06
2023-03-13T06:06:11.581Z,99456.50
2023-03-13T06:09:15.286Z,99454.31
2023-03-13T06:12:18.914Z,99439.19
2023-03-13T06:15:22.916Z,99431.13
2023-03-13T06:18:28.398Z,99420.34
2023-03-13T06:21:32.173Z,99421.91
2023-03-13T06:24:36.084Z,99416.88
2023-03-13T06:27:39.746Z,99415.75
2023-03-13T06:30:43.519Z,99405.03
2023-03-13T06:33:49.739Z,99405.22
2023-03-13T06:36:54.317Z,99405.38
2023-03-13T06:39:57.987Z,99398.31
2023-03-13T06:43:01.651Z,99398.16
2023-03-13T06:46:06.816Z,99400.00
2023-03-13T06:49:12.109Z,99389.78
2023-03-13T06:52:15.684Z,99384.91
2023-03-13T06:55:19.430Z,99376.81
2023-03-13T06:58:32.105Z,99382.78
2023-03-13T07:01:36.559Z,99382.75
2023-03-13T07:04:42.251Z,99373.28
2023-03-13T07:07:47.382Z,99368.06
2023-03-13T07:10:52.382Z,99368.34
2023-03-13T07:14:10.080Z,99372.28
2023-03-13T07:17:19.199Z,99373.66
2023-03-13T07:20:24.351Z,99364.41
2023-03-13T07:23:30.229Z,99358.88
2023-03-13T07:26:34.146Z,99352.03
2023-03-13T07:29:38.111Z,99365.69
2023-03-13T07:32:41.869Z,99373.25
2023-03-13T07:35:51.784Z,99359.00
2023-03-13T07:38:55.634Z,99367.16
2023-03-13T07:41:59.493Z,99363.63
2023-03-13T07:45:03.225Z,99363.69
2023-03-13T07:48:08.067Z,99359.69
2023-03-13T07:51:17.071Z,99344.56
2023-03-13T07:54:20.845Z,99353.94
2023-03-13T07:57:24.595Z,99364.84
2023-03-13T08:00:28.526Z,99360.91
2023-03-13T08:03:32.263Z,99368.06
2023-03-13T08:06:37.450Z,99360.69
2023-03-13T08:09:41.570Z,99350.53
2023-03-13T08:12:45.178Z,99342.16
2023-03-13T08:15:48.817Z,99338.81
2023-03-13T08:18:56.504Z,99339.97
2023-03-13T08:22:01.613Z,99342.28
2023-03-13T08:25:05.400Z,99323.56
2023-03-13T08:28:09.102Z,99329.28
2023-03-13T08:31:16.141Z,99313.09
2023-03-13T08:34:20.883Z,99321.88
2023-03-13T08:37:25.906Z,99330.59
2023-03-13T08:40:29.580Z,99324.59
2023-03-13T08:43:33.106Z,99330.78
2023-03-13T08:46:38.417Z,99325.84
2023-03-13T08:49:42.231Z,99333.44
2023-03-13T08:52:47.789Z,99333.44
2023-03-13T08:55:54.702Z,99330.00
2023-03-13T08:59:01.016Z,99318.63
2023-03-13T09:02:04.638Z,99330.00
2023-03-13T09:05:09.895Z,99337.00
2023-03-13T09:08:15.691Z,99317.91
2023-03-13T09:11:22.595Z,99327.31
2023-03-13T09:14:26.256Z,99330.72
2023-03-13T09:17:29.987Z,99326.97
2023-03-13T09:20:33.594Z,99332.97
2023-03-13T09:23:39.131Z,99328.09
2023-03-13T09:26:55.099Z,99326.97
2023-03-13T09:30:03.959Z,99336.44
2023-03-13T09:33:07.959Z,99330.16
2023-03-13T09:36:12.977Z,99335.03
2023-03-13T09:39:18.015Z,99342.44
2023-03-13T09:42:32.701Z,99330.81
2023-03-13T09:45:43.054Z,99343.66
2023-03-13T09:48:52.322Z,99332.22
2023-03-13T09:52:06.929Z,99338.13
2023-03-13T09:55:21.653Z,99339.06
2023-03-13T09:58:29.922Z,99330.97
2023-03-13T10:01:37.049Z,99326.78
2023-03-13T10:04:50.351Z,99316.78
2023-03-13T10:08:03.343Z,99302.97
2023-03-13T10:11:18.136Z,99308.44
2023-03-13T10:14:31.009Z,99307.91
2023-03-13T10:17:38.314Z,99302.72
2023-03-13T10:20:45.002Z,99287.16
2023-03-13T10:23:55.521Z,99289.13
2023-03-13T10:27:00.746Z,99289.69
2023-03-13T10:30:04.532Z,99300.50
2023-03-13T10:33:25.401Z,99283.56
2023-03-13T10:36:43.223Z,99286.63
2023-03-13T10:39:46.922Z,99294.84
2023-03-13T10:42:55.101Z,99304.84
2023-03-13T10:46:01.044Z,99289.03
2023-03-13T10:49:14.453Z,99282.31
2023-03-13T10:52:34.011Z,99301.38
2023-03-13T10:55:45.349Z,99297.88
2023-03-13T10:58:53.449Z,99300.09
2023-03-13T11:02:02.579Z,99290.00
2023-03-13T11:05:39.102Z,99304.19
2023-03-13T11:08:43.973Z,99293.53
2023-03-13T11:11:51.185Z,99284.59
2023-03-13T11:15:00.795Z,99284.81
2023-03-13T11:18:14.619Z,99269.13
2023-03-13T11:21:31.126Z,99266.69
2023-03-13T11:24:45.647Z,99261.19
2023-03-13T11:28:06.013Z,99264.75
2023-03-13T11:31:16.469Z,99268.66
2023-03-13T11:34:29.821Z,99256.59
2023-03-13T11:37:39.709Z,99266.81
2023-03-13T11:41:00.110Z,99248.63
2023-03-13T11:44:24.313Z,99243.50
2023-03-13T11:47:45.767Z,99236.28
2023-03-13T11:50:56.510Z,99237.97
2023-03-13T11:54:32.079Z,99237.84
2023-03-13T11:57:49.201Z,99250.91
2023-03-13T12:01:01.692Z,99245.53
2023-03-13T12:04:18.832Z,99228.81
2023-03-13T12:07:29.678Z,99228.81
2023-03-13T12:10:40.562Z,99205.38
2023-03-13T12:13:53.554Z,99200.25
2023-03-13T12:17:02.522Z,99191.53
2023-03-13T12:20:20.658Z,99185.03
2023-03-13T12:23:42.157Z,99192.47
2023-03-13T12:26:51.296Z,99196.06
2023-03-13T12:30:01.472Z,99196.91
2023-03-13T12:33:22.813Z,99180.97
2023-03-13T12:36:37.202Z,99175.81
2023-03-13T12:39:50.278Z,99175.19
2023-03-13T12:43:05.264Z,99178.31
2023-03-13T12:46:36.167Z,99178.31
2023-03-13T12:50:24.665Z,99164.63
2023-03-13T12:54:07.430Z,99158.38
2023-03-13T12:57:53.838Z,99154.78
2023-03-13T13:01:04.178Z,99146.13
2023-03-13T13:04:13.976Z,99130.75
2023-03-13T13:07:26.884Z,99133.88
2023-03-13T13:10:32.253Z,99118.97
2023-03-13T13:13:41.482Z,99111.75
2023-03-13T13:16:48.400Z,99105.72
2023-03-13T13:19:52.418Z,99104.03
2023-03-13T13:22:56.125Z,99092.94
2023-03-13T13:26:51.487Z,99104.03
2023-03-13T13:29:57.744Z,99104.34
2023-03-13T13:33:41.932Z,99090.81
2023-03-13T13:36:45.886Z,99091.38
2023-03-13T13:39:52.686Z,99095.84
2023-03-13T13:43:00.053Z,99085.81
2023-03-13T13:46:18.272Z,99068.03
2023-03-13T13:49:23.869Z,99072.03
2023-03-13T13:52:39.768Z,99066.31
2023-03-13T13:55:46.025Z,99053.22
2023-03-13T13:58:51.749Z,99064.19
2023-03-13T14:02:24.203Z,99063.94
2023-03-13T14:05:33.182Z,99053.66
2023-03-13T14:08:40.184Z,99047.66
2023-03-13T14:11:43.767Z,99065.00
2023-03-13T14:14:48.842Z,99033.84
2023-03-13T14:17:55.909Z,99049.47
2023-03-13T14:21:01.984Z,99035.94
2023-03-13T14:24:14.997Z,99036.09
2023-03-13T14:27:22.106Z,99028.56
2023-03-13T14:30:27.322Z,99024.19
2023-03-13T14:33:31.143Z,99017.28
2023-03-13T14:36:49.177Z,99023.19
2023-03-13T14:39:52.982Z,99004.84
2023-03-13T14:42:59.642Z,99002.03
2023-03-13T14:46:17.699Z,99010.22
2023-03-13T14:49:25.802Z,99010.72
2023-03-13T14:52:32.862Z,99007.38
2023-03-13T14:55:40.650Z,99006.31
2023-03-13T14:58:44.206Z,99008.34
2023-03-13T15:02:18.323Z,98994.63
2023-03-13T15:05:34.763Z,98992.22
2023-03-13T15:08:41.297Z,99003.88
2023-03-13T15:11:55.728Z,99005.56
2023-03-13T15:15:00.022Z,98999.75
2023-03-13T15:18:19.950Z,98994.72
2023-03-13T15:21:30.351Z,98983.88
2023-03-13T15:24:34.159Z,98966.00
2023-03-13T15:27:38.229Z,98977.38
2023-03-13T15:30:42.364Z,98974.81
2023-03-13T15:33:47.591Z,98967.75
2023-03-13T15:36:51.430Z,98975.53
2023-03-13T15:39:56.683Z,98968.28
2023-03-13T15:43:00.583Z,98973.06
2023-03-13T15:46:05.777Z,98969.56
2023-03-13T15:49:13.053Z,98953.44
2023-03-13T15:52:22.871Z,98943.72
2023-03-13T15:55:28.872Z,98930.22
2023-03-13T15:58:32.551Z,98933.22
2023-03-13T16:01:36.248Z,98925.38
2023-03-13T16:04:41.321Z,98913.25
2023-03-13T16:07:45.234Z,98918.69
2023-03-13T16:10:49.690Z,98919.19
2023-03-13T16:13:53.406Z,98921.97
2023-03-13T16:16:57.183Z,98914.63
2023-03-13T16:20:02.380Z,98926.50
2023-03-13T16:23:06.046Z,98922.88
2023-03-13T16:26:17.542Z,98916.91
2023-03-13T16:29:21.353Z,98922.72
2023-03-13T16:32:25.559Z,98916.91
2023-03-13T16:35:31.155Z,98913.13
2023-03-13T16:38:34.857Z,98916.78
2023-03-13T16:41:39.053Z,98909.31
2023-03-13T16:44:42.989Z,98918.03
2023-03-13T16:47:47.680Z,98919.50
2023-03-13T16:50:52.662Z,98911.28
2023-03-13T16:54:00.519Z,98903.22
2023-03-13T16:57:04.530Z,98906.44
2023-03-13T17:00:17.998Z,98908.03
2023-03-13T17:03:21.841Z,98903.75
2023-03-13T17:06:29.922Z,98908.16
2023-03-13T17:09:33.673Z,98905.00
2023-03-13T17:12:37.321Z,98911.28
2023-03-13T17:15:41.105Z,98916.34
2023-03-13T17:18:47.623Z,98920.19
2023-03-13T17:21:52.747Z,98922.97
2023-03-13T17:24:56.500Z,98920.81
2023-03-13T17:28:00.418Z,98922.97
2023-03-13T17:31:04.242Z,98919.03
2023-03-13T17:34:09.307Z,98915.53
2023-03-13T17:37:20.999Z,98904.28
2023-03-13T17:40:27.870Z,98910.25
2023-03-13T17:43:31.447Z,98909.66
2023-03-13T17:46:41.539Z,98903.06
2023-03-13T17:49:45.660Z,98902.81
2023-03-13T17:52:50.863Z,98908.31
2023-03-13T17:55:54.430Z,98917.81
2023-03-13T17:59:01.077Z,98921.13
2023-03-13T18:02:04.889Z,98919.09
2023-03-13T18:05:09.506Z,98917.69
2023-03-13T18:08:14.507Z,98917.00
2023-03-13T18:11:18.979Z,98922.31
2023-03-13T18:14:23.120Z,98922.03
2023-03-13T18:17:27.018Z,98931.72
2023-03-13T18:20:33.505Z,98941.44
2023-03-13T18:23:38.554Z,98937.63
2023-03-13T18:26:43.654Z,98944.63
2023-03-13T18:29:49.996Z,98960.88
2023-03-13T18:32:54.352Z,98961.69
2023-03-13T18:35:59.311Z,98969.41
2023-03-13T18:39:06.701Z,98972.81
2023-03-13T18:42:11.936Z,98963.28
2023-03-13T18:45:17.742Z,98956.94
2023-03-13T18:48:21.690Z,98967.81
2023-03-13T18:51:27.369Z,98961.25
2023-03-13T18:54:32.577Z,98973.13
2023-03-13T18:57:36.258Z,98963.72
2023-03-13T19:00:40.468Z,98961.53
2023-03-13T19:03:45.292Z,98955.66
2023-03-13T19:06:49.551Z,98946.69
2023-03-13T19:09:55.616Z,98938.69
2023-03-13T19:12:59.777Z,98953.38
2023-03-13T19:16:03.459Z,98937.69
2023-03-13T19:19:14.040Z,98951.81
2023-03-13T19:22:17.636Z,98952.47
2023-03-13T19:25:22.693Z,98944.09
2023-03-13T19:28:26.312Z,98945.16
2023-03-13T19:31:30.108Z,98932.34
2023-03-13T19:34:35.346Z,98934.47
2023-03-13T19:37:39.242Z,98933.63
2023-03-13T19:40:44.334Z,98936.19
2023-03-13T19:43:48.376Z,98920.53
2023-03-13T19:46:54.591Z,98918.22
2023-03-13T19:49:59.051Z,98917.56
2023-03-13T19:53:02.845Z,98907.19
2023-03-13T19:56:23.114Z,98906.69
2023-03-13T19:59:27.982Z,98919.06
2023-03-13T20:02:31.798Z,98941.97
2023-03-13T20:05:35.497Z,98942.06
2023-03-13T20:08:39.120Z,98927.88
2023-03-13T20:11:45.156Z,98918.88
2023-03-13T20:14:48.927Z,98926.56
2023-03-13T20:17:52.736Z,98930.81
2023-03-13T20:20:56.364Z,98937.66
2023-03-13T20:24:00.903Z,98940.22
2023-03-13T20:27:06.253Z,98939.63
2023-03-13T20:30:11.800Z,98939.50
2023-03-13T20:33:15.707Z,98940.72
2023-03-13T20:36:21.924Z,98929.88
2023-03-13T20:39:25.683Z,98919.56
2023-03-13T20:42:30.694Z,98910.50
2023-03-13T20:45:34.416Z,98905.47
2023-03-13T20:48:39.947Z,98909.03
2023-03-13T20:51:43.869Z,98904.09
2023-03-13T20:54:47.615Z,98887.59
2023-03-13T20:57:52.694Z,98885.28
2023-03-13T21:01:00.454Z,98883.75
2023-03-13T21:04:04.221Z,98895.56
2023-03-13T21:07:07.808Z,98891.59
2023-03-13T21:10:13.215Z,98901.56
2023-03-13T21:13:18.397Z,98919.75
2023-03-13T21:16:22.077Z,98925.38
2023-03-13T21:19:25.745Z,98936.66
2023-03-13T21:22:30.443Z,98955.09
2023-03-13T21:25:34.322Z,98948.00
2023-03-13T21:28:39.916Z,98952.28
2023-03-13T21:31:43.964Z,98953.69
2023-03-13T21:34:48.086Z,98946.84
2023-03-13T21:37:51.855Z,98945.44
2023-03-13T21:40:55.514Z,98937.00
2023-03-13T21:44:00.509Z,98947.59
2023-03-13T21:47:04.212Z,98942.16
2023-03-13T21:50:11.147Z,98923.00
2023-03-13T21:53:14.828Z,98926.09
2023-03-13T21:56:18.515Z,98933.75
2023-03-13T21:59:25.307Z,98933.59
2023-03-13T22:02:29.122Z,98919.50
2023-03-13T22:05:32.793Z,98906.03
2023-03-13T22:08:36.448Z,98919.53
2023-03-13T22:11:40.333Z,98922.78
2023-03-13T22:14:45.693Z,98923.28
2023-03-13T22:17:49.495Z,98927.75
2023-03-13T22:20:53.323Z,98931.50
2023-03-13T22:23:57.010Z,98920.41
2023-03-13T22:27:00.695Z,98918.03
2023-03-13T22:30:07.498Z,98905.44
2023-03-13T22:33:11.139Z,98929.66
2023-03-13T22:36:14.866Z,98936.97
2023-03-13T22:39:18.732Z,98931.53
2023-03-13T22:42:22.938Z,98923.47
2023-03-13T22:45:28.111Z,98906.84
2023-03-13T22:48:32.809Z,98896.09
2023-03-13T22:51:36.498Z,98896.28
2023-03-13T22:54:40.202Z,98885.25
2023-03-13T22:57:43.859Z,98890.41
2023-03-13T23:00:49.446Z,98878.72
2023-03-13T23:03:53.222Z,98890.31
2023-03-13T23:06:56.852Z,98883.03
2023-03-13T23:10:00.886Z,98877.88
2023-03-13T23:13:04.705Z,98885.09
2023-03-13T23:16:12.942Z,98877.88
2023-03-13T23:19:16.527Z,98871.91
2023-03-13T23:22:21.878Z,98867.06
2023-03-13T23:25:25.790Z,98854.53
2023-03-13T23:28:29.884Z,98846.50
2023-03-13T23:31:35.003Z,98847.72
2023-03-13T23:34:38.613Z,98845.19
2023-03-13T23:37:42.199Z,98852.66
2023-03-13T23:40:46.045Z,98845.56
2023-03-13T23:43:49.689Z,98858.25
2023-03-13T23:46:54.730Z,98855.66
2023-03-13T23:49:58.373Z,98852.47
2023-03-13T23:53:02.112Z,98851.72
2023-03-13T23:56:06.791Z,98860.88
2023-03-13T23:59:10.408Z,98852.84
